• Join FlightAware (Why Join?)
  • Login
  • US Flag 
12:28AM EDT


 

Airport Tracker/Info


-or-


 

Live Flight TrackerFlight Track Log ✈ DAL6196 ✈ 05-May-2013 ✈ KRDU - KLGA

Flight Track Log - Related Links

Times and Time Zones

All times are in EDT time to prevent confusion due to time zone crossing. See the DAL6196 flight status page for this flight to view local times or setup timezone preferences in your user account.

Time Position Orientation Groundspeed Altitude Reporting Facility
EDT Latitude Longitude Course Direction KTS MPH feet Rate Location/Type
01:17PM 35.9008 -78.7794 39° Northeast 149 171 1,600  Level Washington Center
01:19PM 35.9622 -78.7483 22° Northeast 213 245 4,200 1,980 Climbing Washington Center
01:19PM 36.0131 -78.7197 24° Northeast 255 293 5,900 2,040 Climbing Washington Center
01:20PM 36.0322 -78.6972 44° Northeast 284 327 6,600 1,860 Climbing Washington Center
01:21PM 36.0881 -78.6403 39° Northeast 284 327 8,500 1,920 Climbing Washington Center
01:22PM 36.1394 -78.5858 41° Northeast 278 320 10,500 1,740 Climbing Washington Center
01:23PM 36.3611 -78.3223 39° Northeast  Level FlightAware Approximate
01:23PM 36.2144 -78.5064 41° Northeast 296 341 12,100  Level Washington Center
01:24PM 36.2853 -78.4317 40° Northeast 346 398 13,200 1,440 Climbing Washington Center
01:25PM 36.3772 -78.3342 40° Northeast 384 442 15,000 1,620 Climbing Washington Center
01:26PM 36.4689 -78.2394 40° Northeast 402 463 16,500 1,440 Climbing Washington Center
01:27PM 36.5608 -78.1469 39° Northeast 413 475 18,000 1,500 Climbing Washington Center
01:28PM 36.6567 -78.0542 38° Northeast 418 481 19,600 1,560 Climbing Washington Center
01:29PM 36.7503 -77.9639 38° Northeast 430 495 21,200 1,380 Climbing Washington Center
01:30PM 36.8458 -77.8656 39° Northeast 430 495 22,400 1,200 Climbing Washington Center
01:31PM 36.9233 -77.7431 52° Northeast 430 495 23,600 1,140 Climbing Washington Center
01:32PM 37.0028 -77.6206 51° Northeast 436 502 24,700 1,020 Climbing Washington Center
01:33PM 37.0861 -77.4925 51° Northeast 455 524 25,700 960 Climbing Washington Center
01:34PM 37.1653 -77.3667 52° Northeast 462 532 26,700 960 Climbing Washington Center
01:35PM 37.2483 -77.2408 50° Northeast 462 532 27,700 1,020 Climbing Washington Center
01:36PM 37.3378 -77.1122 49° Northeast 477 549 28,800 960 Climbing Washington Center
01:37PM 37.4408 -77.0356 31° Northeast 465 535 29,700 840 Climbing Washington Center
01:38PM 37.5669 -76.9411 31° Northeast 472 543 30,600 840 Climbing Washington Center
01:39PM 37.6786 -76.8564 31° Northeast 472 543 31,400 780 Climbing Washington Center
01:40PM 37.7942 -76.7717 30° Northeast 478 550 32,200 660 Climbing Washington Center
01:41PM 37.9075 -76.6867 31° Northeast 473 544 32,800 360 Climbing Washington Center
01:42PM 38.0189 -76.6039 30° Northeast 473 544 33,000 120 Climbing Washington Center
01:43PM 38.1300 -76.5208 30° Northeast 473 544 33,100 -420 Climbing Washington Center
01:44PM 38.2453 -76.4350 30° Northeast 473 544 32,200 -1,260 Descending Washington Center
01:45PM 38.3439 -76.3514 34° Northeast 452 520 30,600 -1,620 Descending Washington Center
01:46PM 38.4361 -76.2622 37° Northeast 427 491 29,100 -1,560 Descending Washington Center
01:47PM 38.5219 -76.1808 37° Northeast 406 467 27,600 -1,080 Descending Washington Center
01:48PM 38.6017 -76.1069 36° Northeast 391 450 27,000 -300 Descending Washington Center
01:49PM 38.6958 -76.0253 34° Northeast 391 450 27,000  Level Washington Center
01:50PM 38.7897 -75.9378 36° Northeast 397 457 27,000  Level Washington Center
01:51PM 38.8817 -75.8475 37° Northeast 402 463 27,000  Level Washington Center
01:52PM 38.9778 -75.7572 36° Northeast 410 472 27,000  Level Washington Center
01:53PM 39.0717 -75.6719 35° Northeast 415 478 27,000 -540 Level Washington Center
01:54PM 39.1656 -75.5783 38° Northeast 420 483 26,000 -1,380 Descending Washington Center
01:55PM 39.2592 -75.4925 35° Northeast 420 483 24,400 -1,620 Descending Washington Center
01:56PM 39.3489 -75.4117 35° Northeast 409 471 22,900 -1,500 Descending Washington Center
01:57PM 39.4403 -75.3336 33° Northeast 398 458 21,400 -1,500 Descending Washington Center
01:58PM 39.5297 -75.2525 35° Northeast 398 458 19,900 -1,500 Descending Washington Center
01:59PM 39.6169 -75.1714 36° Northeast 393 452 18,400 -1,380 Descending Washington Center
02:00PM 39.7103 -75.0872 35° Northeast 382 440 17,200 -1,320 Descending Washington Center
02:01PM 39.7850 -75.0217 34° Northeast 373 429 15,800 -1,440 Descending Washington Center
02:02PM 39.8783 -74.9400 34° Northeast 373 429 14,300 -1,500 Descending Washington Center
02:03PM 39.9500 -74.8500 44° Northeast 343 395 12,800 -1,440 Descending New York TRACON
02:04PM 40.0167 -74.7667 44° Northeast 340 391 11,400 -1,380 Descending New York TRACON
02:05PM 40.0833 -74.6667 49° Northeast 338 389 10,100 -720 Descending New York TRACON
02:06PM 40.1500 -74.5833 44° Northeast 331 381 10,000 -60 Descending New York TRACON
02:07PM 40.2000 -74.5000 52° Northeast 329 379 10,000  Level New York TRACON
02:08PM 40.2667 -74.4167 44° Northeast 329 379 10,000  Level New York TRACON
02:09PM 40.3333 -74.3333 44° Northeast 330 380 10,000 -480 Level New York TRACON
02:10PM 40.3833 -74.2667 45° Northeast 283 326 9,100 -1,380 Descending New York TRACON
02:11PM 40.4500 -74.1833 44° Northeast 272 313 7,400 -1,200 Descending New York TRACON
02:12PM 40.5000 -74.1167 45° Northeast 255 293 6,700 -1,200 Descending New York TRACON
02:13PM 40.5500 -74.0667 37° Northeast 214 246 5,000 -1,740 Descending New York TRACON
02:14PM 40.6000 -74.0333 27° Northeast 203 234 3,300 -1,200 Descending New York TRACON
02:15PM 40.6333 -74.0000 37° Northeast 170 196 2,700 -480 Descending New York TRACON
02:16PM 40.6667 -73.9667 37° Northeast 180 207 2,400 -720 Descending New York TRACON
02:17PM 40.7167 -73.9333 27° Northeast 160 184 1,400 -900 Descending New York TRACON
02:18PM 40.7500 -73.9000 37° Northeast 151 174 600 -780 Descending New York TRACON
02:20PM 40.7667 -73.8667 30° Northeast  Level FlightAware Approximate